メインページ
METAR-TAF:

METAR-TAF

空港 :

サンティアゴ, チリ

アルトゥーロ・メリノ・ベニテス国際空港

緯度: 33-23S, 経度: 070-47W, 海抜: 475m

現時点の気象観測

当レポートは27分前の06:00(UTC)に作成
南/南東の風 2kt
気温 16°C
湿度 72%
気圧 1017 hPa
視程10km以上
1,500メートル以下は雲なし、積乱雲なし

METAR: SCEL 140600Z 15002KT CAVOK 16/11 Q1017 NOSIG

時間: 03:27 (06:27 UTC)

予報

当レポートは2時間25分前の04:02(UTC)に作成
予報は14日の 06時(UTC)から 15日の 06時(UTC)まで有効
南/南東の風 4kt
視程: 8000m
14日の 08時(UTC)から 14日の 14時(UTC)まで一時的に
の風 kt
視程: 5000m
煙霧
14日の 16時(UTC)から 14日の 18時(UTC)まで徐々に
の風 10kt
視程10km以上
1,500メートル以下は雲なし、積乱雲なし
14日の 18時(UTC)から 14日の 20時(UTC)まで徐々に
南西の風 14kt
15日の 01時(UTC)から 15日の 03時(UTC)まで徐々に
南/南東の風 4kt

TAF: SCEL 140402Z 1406/1506 15004KT 8000 NSC TX30/1419Z TN13/1410Z TEMPO 1408/1414 00000KT 5000 HZ BECMG 1416/1418 18010KT CAVOK BECMG 1418/1420 22014KT BECMG 1501/1503 16004KT

4,000以上の空港の気象観測と天気予報(METAR報とTAF報)

利用可能な観測所は地図上に黄色い丸と赤い丸で示す。

丸の上にカーソルを重ねると観測所名を参照できる。

次にクリックすると気象観測と天気予報を参照できる。

マップの切り替え:黒色「×」印の緑ボタンをクリックして拡大、「-」印の緑ボタンをクリックして縮小、緑色の三角印をクリックして隣りの地図に切り替え


METAR-TAF: